Observations for BLACKPOOL AIRPORT, United Kingdom (EGNH)

EGNH 242050Z 29013KT 9999 FEW032 06/01 Q1010
EGNH 242020Z 30014KT 9999 SCT031 06/02 Q1010
EGNH 241950Z 30014KT 9999 FEW028 SCT032 07/02 Q1010 
EGNH 241920Z 25007KT 210V320 9999 SCT021 BKN032 05/03 Q1010 
EGNH 241850Z 28006KT 250V310 9999 FEW003 SCT013 BKN028 05/03 Q1010  
EGNH 241820Z 33005KT 290V020 9999 -RA FEW013 BKN035 05/03 Q1010 
EGNH 241750Z 32009KT 9999 -RADZ SCT016 BKN022 05/03 Q1010   
EGNH 241720Z 28016G27KT 9999 -SHRA FEW006 SCT020 BKN040 06/03 Q1009 
EGNH 241650Z 19005KT 150V220 9999 FEW010 BKN022CB 04/03 Q1009   
EGNH 241620Z 23007KT 9999 -SHRA FEW010 BKN016CB 04/03 Q1010 
EGNH 241550Z 26014G28KT 220V290 9999 3000SE -SHRA FEW004 BKN015CB 05/03 Q1010   
EGNH 241520Z 25014KT 9999 -SHRA FEW002 BKN018CB 05/03 Q1009 RETSRAGS
EGNH 241450Z 23005KT 9999 VCSH SCT026CB 06/03 Q1009 
EGNH 241420Z 26007KT 9999 VCSH FEW003 SCT033 06/03 Q1010
EGNH 241350Z 27012KT 9999 VCSH SCT035CB 08/01 Q1009 
EGNH 241320Z 26016KT 9999 FEW031 08/02 Q1010
EGNH 241250Z 26017KT 9999 FEW033 08/01 Q1010
EGNH 241220Z 26016KT 9999 FEW032 08/02 Q1009
EGNH 241150Z 27015KT 9999 FEW032 09/02 Q1009
EGNH 241120Z 26015KT 9999 SCT032 08/02 Q1009
EGNH 241050Z 27012KT 9999 SCT034 08/02 Q1009
EGNH 241020Z 26008KT 9999 SCT033 08/03 Q1009
EGNH 240950Z 30007KT 9999 VCSH SCT035 07/03 Q1009   
EGNH 240920Z 30009KT 9999 VCSH SCT024 06/02 Q1009   
EGNH 240850Z 29012KT 250V310 9999 -SHRA FEW016CB SCT030 07/02 Q1008 
EGNH 240820Z 29012KT 9999 FEW024TCU 07/01 Q1008 
EGNH 240750Z 29013KT 9999 FEW024CB 07/01 Q1008  
EGNH 240720Z 30013KT 9999 FEW022 07/01 Q1007
EGNH 240650Z 28014KT 9999 SCT033 07/01 Q1007
EGNH 240620Z 28014KT 9999 SCT033 07/01 Q1007